createdAt,value
2018-04-18T00:00:58.666Z,0.00
2018-04-18T00:01:58.664Z,0.00
2018-04-18T00:02:58.676Z,0.00
2018-04-18T00:03:58.735Z,0.00
2018-04-18T00:04:58.630Z,0.00
2018-04-18T00:05:58.494Z,0.00
2018-04-18T00:06:58.737Z,0.00
2018-04-18T00:07:58.535Z,0.00
2018-04-18T00:08:58.651Z,0.00
2018-04-18T00:09:58.627Z,0.00
2018-04-18T00:10:58.561Z,0.00
2018-04-18T00:11:58.515Z,0.00
2018-04-18T00:12:58.621Z,0.00
2018-04-18T00:13:58.536Z,0.00
2018-04-18T00:14:58.772Z,0.00
2018-04-18T00:15:58.757Z,0.00
2018-04-18T00:16:58.878Z,0.00
2018-04-18T00:17:58.810Z,0.00
2018-04-18T00:18:58.626Z,0.00
2018-04-18T00:19:58.646Z,0.00
2018-04-18T00:20:58.712Z,0.00
2018-04-18T00:21:58.628Z,0.00
2018-04-18T00:22:58.641Z,0.00
2018-04-18T00:23:58.572Z,0.00
2018-04-18T00:24:58.606Z,0.00
2018-04-18T00:25:58.572Z,0.00
2018-04-18T00:26:58.609Z,0.00
2018-04-18T00:27:58.592Z,0.00
2018-04-18T00:28:58.647Z,0.00
2018-04-18T00:29:58.582Z,0.00
2018-04-18T00:30:58.616Z,0.00
2018-04-18T00:31:58.652Z,0.00
2018-04-18T00:32:58.614Z,0.00
2018-04-18T00:33:58.648Z,0.00
2018-04-18T00:34:58.638Z,0.00
2018-04-18T00:35:58.648Z,0.00
2018-04-18T00:36:58.633Z,0.00
2018-04-18T00:37:58.644Z,0.00
2018-04-18T00:38:58.648Z,0.00
2018-04-18T00:39:58.707Z,0.00
2018-04-18T00:40:58.650Z,0.00
2018-04-18T00:41:58.675Z,0.00
2018-04-18T00:42:58.656Z,0.00
2018-04-18T00:43:58.781Z,0.00
2018-04-18T00:44:58.878Z,0.00
2018-04-18T00:49:53.403Z,0.00
2018-04-18T00:50:32.146Z,0.00
2018-04-18T00:51:32.255Z,0.00
2018-04-18T00:52:31.619Z,0.00
2018-04-18T00:53:31.637Z,0.00
2018-04-18T00:54:32.249Z,0.00
2018-04-18T00:55:32.237Z,0.00
2018-04-18T00:56:31.802Z,0.00
2018-04-18T00:57:31.748Z,0.00
2018-04-18T00:58:31.747Z,0.00
2018-04-18T00:59:31.825Z,0.00
2018-04-18T01:00:31.598Z,0.00
2018-04-18T01:01:31.760Z,0.00
2018-04-18T01:02:31.690Z,0.00
2018-04-18T01:03:31.613Z,0.00
2018-04-18T01:04:31.752Z,0.00
2018-04-18T01:05:32.156Z,0.00
2018-04-18T01:06:31.662Z,0.00
2018-04-18T01:07:31.871Z,0.00
2018-04-18T01:08:31.737Z,0.00
2018-04-18T01:09:31.717Z,0.00
2018-04-18T01:10:32.144Z,0.00
2018-04-18T01:11:31.850Z,0.00
2018-04-18T01:12:31.612Z,0.00
2018-04-18T01:13:31.645Z,0.00
2018-04-18T01:14:31.759Z,0.00
2018-04-18T01:15:31.677Z,0.00
2018-04-18T01:16:31.759Z,0.00
2018-04-18T01:17:31.694Z,0.00
2018-04-18T01:18:31.757Z,0.00
2018-04-18T01:19:31.774Z,0.00
2018-04-18T01:20:31.834Z,0.00
2018-04-18T01:21:31.707Z,0.00
2018-04-18T01:22:31.774Z,0.00
2018-04-18T01:23:31.794Z,0.00
2018-04-18T01:24:31.720Z,0.00
2018-04-18T01:25:31.727Z,0.00
2018-04-18T01:26:31.695Z,0.00
2018-04-18T01:27:31.818Z,0.00
2018-04-18T01:28:31.821Z,0.00
2018-04-18T01:29:31.785Z,0.00
2018-04-18T01:30:31.680Z,0.00
2018-04-18T01:31:31.842Z,0.00
2018-04-18T01:32:31.739Z,0.00
2018-04-18T01:33:31.779Z,0.00
2018-04-18T01:34:31.709Z,0.00
2018-04-18T01:35:31.833Z,0.00
2018-04-18T01:36:31.830Z,0.00
2018-04-18T01:37:31.756Z,0.00
2018-04-18T01:38:31.855Z,0.00
2018-04-18T01:39:31.811Z,0.00
2018-04-18T01:40:31.756Z,0.00
2018-04-18T01:41:31.758Z,0.00
2018-04-18T01:42:31.873Z,0.00
2018-04-18T01:43:31.851Z,0.00
2018-04-18T01:44:31.729Z,0.00
2018-04-18T01:45:31.826Z,0.00
2018-04-18T01:46:32.156Z,0.00
2018-04-18T01:47:31.761Z,0.00
2018-04-18T01:48:31.829Z,0.00
2018-04-18T01:49:31.801Z,0.00
2018-04-18T01:50:32.014Z,0.00
2018-04-18T01:51:31.790Z,0.00
2018-04-18T01:52:31.936Z,0.00
2018-04-18T01:53:31.843Z,0.00
2018-04-18T01:54:31.768Z,0.00
2018-04-18T01:55:31.846Z,0.00
2018-04-18T01:56:31.981Z,0.00
2018-04-18T01:57:31.799Z,0.00
2018-04-18T01:58:31.727Z,0.00
2018-04-18T01:59:31.780Z,0.00
2018-04-18T02:00:31.798Z,0.00
2018-04-18T02:01:31.747Z,0.00
2018-04-18T02:02:31.812Z,0.00
2018-04-18T02:03:31.768Z,0.00
2018-04-18T02:04:31.752Z,0.00
2018-04-18T02:05:31.732Z,0.00
2018-04-18T02:06:31.788Z,0.00
2018-04-18T02:07:31.735Z,0.00
2018-04-18T02:08:31.768Z,0.00
2018-04-18T02:09:31.807Z,0.00
2018-04-18T02:10:31.759Z,0.00
2018-04-18T02:11:31.797Z,0.00
2018-04-18T02:12:31.838Z,0.00
2018-04-18T02:13:31.831Z,0.00
2018-04-18T02:14:31.827Z,0.00
2018-04-18T02:15:31.781Z,0.00
2018-04-18T02:16:31.898Z,0.00
2018-04-18T02:17:31.915Z,0.00
2018-04-18T02:18:31.817Z,0.00
2018-04-18T02:19:31.877Z,0.00
2018-04-18T02:20:31.933Z,0.00
2018-04-18T02:21:31.895Z,0.00
2018-04-18T02:22:31.903Z,0.00
2018-04-18T02:23:31.898Z,0.00
2018-04-18T02:24:31.882Z,0.00
2018-04-18T02:25:31.916Z,0.00
2018-04-18T02:26:32.031Z,0.00
2018-04-18T02:27:31.923Z,0.00
2018-04-18T02:28:32.664Z,0.00
2018-04-18T02:29:31.824Z,0.00
2018-04-18T02:30:31.859Z,0.00
2018-04-18T02:31:31.858Z,0.00
2018-04-18T02:32:31.869Z,0.00
2018-04-18T02:33:31.952Z,0.00
2018-04-18T02:34:31.924Z,0.00
2018-04-18T02:35:31.919Z,0.00
2018-04-18T02:36:32.059Z,0.00
2018-04-18T02:37:31.881Z,0.00
2018-04-18T02:38:31.880Z,0.00
2018-04-18T02:39:31.855Z,0.00
2018-04-18T02:40:31.900Z,0.00
2018-04-18T02:41:31.868Z,0.00
2018-04-18T02:42:32.053Z,0.00
2018-04-18T02:43:32.670Z,0.00
2018-04-18T02:44:32.077Z,0.00
2018-04-18T02:45:31.860Z,0.00
2018-04-18T02:46:31.927Z,0.00
2018-04-18T02:47:31.825Z,0.00
2018-04-18T02:48:32.004Z,0.00
2018-04-18T02:49:31.910Z,0.00
2018-04-18T02:50:31.922Z,0.00
2018-04-18T02:51:31.861Z,0.00
2018-04-18T02:52:31.836Z,0.00
2018-04-18T02:53:31.921Z,0.00
2018-04-18T02:54:31.953Z,0.00
2018-04-18T02:55:31.863Z,0.00
2018-04-18T02:56:31.839Z,0.00
2018-04-18T02:57:31.849Z,0.00
2018-04-18T02:58:31.883Z,0.00
2018-04-18T02:59:31.956Z,0.00
2018-04-18T03:00:31.863Z,0.00
2018-04-18T03:01:31.907Z,0.00
2018-04-18T03:02:31.924Z,0.00
2018-04-18T03:03:31.953Z,0.00
2018-04-18T03:04:31.986Z,0.00
2018-04-18T03:05:31.901Z,0.00
2018-04-18T03:06:31.883Z,0.00
2018-04-18T03:07:31.934Z,0.00
2018-04-18T03:08:31.849Z,0.00
2018-04-18T03:09:31.928Z,0.00
2018-04-18T03:10:31.929Z,0.00
2018-04-18T03:11:31.877Z,0.00
2018-04-18T03:12:31.904Z,0.00
2018-04-18T03:13:31.976Z,0.00
2018-04-18T03:14:31.990Z,0.00
2018-04-18T03:15:32.004Z,0.00
2018-04-18T03:16:32.061Z,0.00
2018-04-18T03:17:31.985Z,0.00
2018-04-18T03:18:31.933Z,0.00
2018-04-18T03:19:31.967Z,0.00
2018-04-18T03:20:31.952Z,0.00
2018-04-18T03:21:31.922Z,0.00
2018-04-18T03:22:31.951Z,0.00
2018-04-18T03:23:31.930Z,0.00
2018-04-18T03:24:32.683Z,0.00
2018-04-18T03:25:31.891Z,0.00
2018-04-18T03:26:32.203Z,0.00
2018-04-18T03:27:31.975Z,0.00
2018-04-18T03:28:31.950Z,0.00
2018-04-18T03:29:32.046Z,0.00
2018-04-18T03:30:31.968Z,0.00
2018-04-18T03:31:32.003Z,0.00
2018-04-18T03:32:31.967Z,0.00
2018-04-18T03:33:31.944Z,0.00
2018-04-18T03:34:31.943Z,0.00
2018-04-18T03:35:31.989Z,0.00
2018-04-18T03:36:31.998Z,0.00
2018-04-18T03:37:31.941Z,0.00
2018-04-18T03:38:32.023Z,0.00
2018-04-18T03:39:31.967Z,0.00
2018-04-18T03:40:31.963Z,0.00
2018-04-18T03:41:31.970Z,0.00
2018-04-18T03:42:32.103Z,0.00
2018-04-18T03:43:31.996Z,0.00
2018-04-18T03:44:32.049Z,0.00
2018-04-18T03:45:31.995Z,0.00
2018-04-18T03:46:31.966Z,0.00
2018-04-18T03:47:32.195Z,0.00
2018-04-18T03:48:32.108Z,0.00
2018-04-18T03:49:32.134Z,0.00
2018-04-18T03:50:32.267Z,0.00
2018-04-18T03:51:32.025Z,0.00
2018-04-18T03:52:32.130Z,0.00
2018-04-18T03:53:31.963Z,0.00
2018-04-18T03:54:31.965Z,0.00
2018-04-18T03:55:32.162Z,4.00
2018-04-18T03:56:32.024Z,4.00
2018-04-18T03:57:32.073Z,0.00
2018-04-18T03:58:32.011Z,4.00
2018-04-18T03:59:32.058Z,4.00
2018-04-18T04:00:32.273Z,4.00
2018-04-18T04:01:32.162Z,4.00
2018-04-18T04:02:32.087Z,8.00
2018-04-18T04:03:32.170Z,8.00
2018-04-18T04:04:32.016Z,8.00
2018-04-18T04:05:32.101Z,12.00
2018-04-18T04:06:32.110Z,12.00
2018-04-18T04:07:32.300Z,12.00
2018-04-18T04:08:32.698Z,16.00
2018-04-18T04:09:32.135Z,20.00
2018-04-18T04:10:32.075Z,20.00
2018-04-18T04:11:32.270Z,24.00
2018-04-18T04:12:32.241Z,28.00
2018-04-18T04:13:32.133Z,28.00
2018-04-18T04:14:32.118Z,36.00
2018-04-18T04:15:32.101Z,40.00
2018-04-18T04:16:32.130Z,44.00
2018-04-18T04:17:32.144Z,52.00
2018-04-18T04:18:32.131Z,56.00
2018-04-18T04:19:32.084Z,68.00
2018-04-18T04:20:32.120Z,76.00
2018-04-18T04:21:32.009Z,80.00
2018-04-18T04:22:32.094Z,92.00
2018-04-18T04:23:32.049Z,100.00
2018-04-18T04:24:32.085Z,112.00
2018-04-18T04:25:32.109Z,124.00
2018-04-18T04:26:32.202Z,132.00
2018-04-18T04:27:32.118Z,144.00
2018-04-18T04:28:32.088Z,160.00
2018-04-18T04:29:32.134Z,172.00
2018-04-18T04:30:32.155Z,192.00
2018-04-18T04:31:32.175Z,204.00
2018-04-18T04:32:32.193Z,224.00
2018-04-18T04:33:32.217Z,240.00
2018-04-18T04:34:32.293Z,260.00
2018-04-18T04:35:32.252Z,276.00
2018-04-18T04:36:32.256Z,296.00
2018-04-18T04:37:32.186Z,316.00
2018-04-18T04:38:32.307Z,336.00
2018-04-18T04:39:32.204Z,360.00
2018-04-18T04:40:32.169Z,380.00
2018-04-18T04:41:32.247Z,404.00
2018-04-18T04:42:32.165Z,428.00
2018-04-18T04:43:32.342Z,456.00
2018-04-18T04:44:32.216Z,480.00
2018-04-18T04:45:32.151Z,508.00
2018-04-18T04:46:32.467Z,532.00
2018-04-18T04:47:32.192Z,564.00
2018-04-18T04:48:32.094Z,588.00
2018-04-18T04:49:32.200Z,616.00
2018-04-18T04:50:32.212Z,648.00
2018-04-18T04:51:32.204Z,676.00
2018-04-18T04:52:32.233Z,708.00
2018-04-18T04:53:32.165Z,736.00
2018-04-18T04:54:32.317Z,768.00
2018-04-18T04:55:32.179Z,796.00
2018-04-18T04:56:32.132Z,828.00
2018-04-18T04:57:32.237Z,860.00
2018-04-18T04:58:32.151Z,892.00
2018-04-18T04:59:32.545Z,924.00
2018-04-18T05:00:32.284Z,956.00
2018-04-18T05:01:32.153Z,984.00
2018-04-18T05:02:32.255Z,1020.00
2018-04-18T05:03:32.694Z,1048.00
2018-04-18T05:04:32.208Z,1080.00
2018-04-18T05:05:32.133Z,1116.00
2018-04-18T05:06:32.185Z,1148.00
2018-04-18T05:07:32.138Z,1180.00
2018-04-18T05:08:32.208Z,1212.00
2018-04-18T05:09:32.141Z,1252.00
2018-04-18T05:10:32.316Z,1284.00
2018-04-18T05:11:32.168Z,1316.00
2018-04-18T05:12:32.252Z,1348.00
2018-04-18T05:13:32.277Z,1376.00
2018-04-18T05:14:32.239Z,1408.00
2018-04-18T05:15:32.188Z,1436.00
2018-04-18T05:16:32.295Z,1468.00
2018-04-18T05:17:32.274Z,1500.00
2018-04-18T05:18:32.366Z,1536.00
2018-04-18T05:19:32.375Z,1564.00
2018-04-18T05:20:32.246Z,1608.00
2018-04-18T05:21:32.298Z,1664.00
2018-04-18T05:22:32.195Z,1716.00
2018-04-18T05:23:32.259Z,1752.00
2018-04-18T05:24:32.246Z,1780.00
2018-04-18T05:25:32.198Z,1820.00
2018-04-18T05:26:32.223Z,1880.00
2018-04-18T05:27:32.238Z,1928.00
2018-04-18T05:28:32.280Z,2012.00
2018-04-18T05:29:32.344Z,2100.00
2018-04-18T05:30:32.877Z,2172.00
2018-04-18T05:31:32.259Z,2248.00
2018-04-18T05:32:32.218Z,2452.00
2018-04-18T05:33:32.305Z,2836.00
2018-04-18T05:34:32.245Z,3208.00
2018-04-18T05:35:32.295Z,3460.00
2018-04-18T05:36:32.235Z,3616.00
2018-04-18T05:37:32.234Z,3704.00
2018-04-18T05:38:32.281Z,3788.00
2018-04-18T05:39:32.226Z,3868.00
2018-04-18T05:40:32.244Z,3940.00
2018-04-18T05:41:32.269Z,3988.00
2018-04-18T05:42:32.231Z,4028.00
2018-04-18T05:43:32.295Z,4148.00
2018-04-18T05:44:32.343Z,4264.00
2018-04-18T05:45:32.179Z,4360.00
2018-04-18T05:46:32.207Z,4440.00
2018-04-18T05:47:32.261Z,4512.00
2018-04-18T05:48:32.280Z,4592.00
2018-04-18T05:49:32.418Z,4484.00
2018-04-18T05:50:32.613Z,4120.00
2018-04-18T05:51:32.890Z,4296.00
2018-04-18T05:52:32.738Z,4812.00
2018-04-18T05:53:33.089Z,4956.00
2018-04-18T05:54:32.539Z,5036.00
2018-04-18T05:55:32.496Z,5092.00
2018-04-18T05:56:33.180Z,5068.00
2018-04-18T05:57:33.197Z,5076.00
2018-04-18T05:58:33.238Z,5212.00
2018-04-18T05:59:32.233Z,5360.00
2018-04-18T06:00:32.567Z,5448.00
2018-04-18T06:01:32.728Z,5536.00
2018-04-18T06:02:34.388Z,5620.00
2018-04-18T06:03:32.545Z,5728.00
2018-04-18T06:04:32.513Z,5816.00
2018-04-18T06:05:32.534Z,5880.00
2018-04-18T06:06:32.540Z,5928.00
2018-04-18T06:07:32.325Z,5980.00
2018-04-18T06:08:32.425Z,6032.00
2018-04-18T06:09:32.380Z,6104.00
2018-04-18T06:10:32.547Z,6156.00
2018-04-18T06:11:32.559Z,6200.00
2018-04-18T06:12:32.357Z,6248.00
2018-04-18T06:13:32.377Z,6168.00
2018-04-18T06:14:32.415Z,5532.00
2018-04-18T06:15:32.488Z,4652.00
2018-04-18T06:16:32.533Z,4652.00
2018-04-18T06:17:32.380Z,5592.00
2018-04-18T06:18:33.142Z,6384.00
2018-04-18T06:19:32.433Z,6660.00
2018-04-18T06:20:32.562Z,6796.00
2018-04-18T06:21:37.392Z,6880.00
2018-04-18T06:22:32.663Z,6952.00
2018-04-18T06:23:35.081Z,7000.00
2018-04-18T06:24:32.812Z,7120.00
2018-04-18T06:25:32.493Z,7048.00
2018-04-18T06:26:35.023Z,7236.00
2018-04-18T06:27:34.213Z,7344.00
2018-04-18T06:28:32.516Z,7392.00
2018-04-18T06:29:32.659Z,7468.00
2018-04-18T06:30:32.431Z,7548.00
2018-04-18T06:31:35.756Z,7364.00
2018-04-18T06:32:36.486Z,7684.00
2018-04-18T06:33:34.158Z,7756.00
2018-04-18T06:34:39.514Z,7824.00
2018-04-18T06:35:35.130Z,7908.00
2018-04-18T06:37:33.252Z,8064.00
2018-04-18T06:38:32.686Z,8136.00
2018-04-18T06:39:34.846Z,8196.00
2018-04-18T06:40:33.251Z,8244.00
2018-04-18T06:41:32.648Z,8308.00
2018-04-18T06:42:32.969Z,8388.00
2018-04-18T06:43:32.716Z,8464.00
2018-04-18T06:44:36.298Z,8544.00
2018-04-18T06:45:35.647Z,8636.00
2018-04-18T06:46:32.811Z,8704.00
2018-04-18T06:47:32.846Z,8764.00
2018-04-18T06:48:35.764Z,8828.00
2018-04-18T06:49:33.010Z,8924.00
2018-04-18T06:50:35.848Z,9032.00
2018-04-18T06:51:33.566Z,9100.00
2018-04-18T06:52:34.727Z,9180.00
2018-04-18T06:53:33.682Z,9284.00
2018-04-18T06:54:32.848Z,9368.00
2018-04-18T06:55:33.388Z,9456.00
2018-04-18T06:56:32.698Z,9540.00
2018-04-18T06:57:33.093Z,9620.00
2018-04-18T06:58:39.832Z,9676.00
2018-04-18T06:59:36.127Z,9720.00
2018-04-18T07:00:39.914Z,9816.00
2018-04-18T07:01:36.293Z,9896.00
2018-04-18T07:03:35.771Z,10040.00
2018-04-18T07:05:33.052Z,10212.00
2018-04-18T07:06:41.318Z,10332.00
2018-04-18T07:07:33.820Z,10472.00
2018-04-18T07:08:38.367Z,10560.00
2018-04-18T07:09:48.682Z,10632.00
2018-04-18T07:11:33.815Z,10764.00
2018-04-18T07:13:36.720Z,10928.00
2018-04-18T07:14:35.652Z,11040.00
2018-04-18T07:15:33.337Z,11140.00
2018-04-18T07:16:33.152Z,11276.00
2018-04-18T07:17:32.906Z,11360.00
2018-04-18T07:18:32.980Z,11468.00
2018-04-18T07:19:35.944Z,11532.00
2018-04-18T07:20:33.104Z,11612.00
2018-04-18T07:21:34.754Z,11688.00
2018-04-18T07:22:36.563Z,11756.00
2018-04-18T07:23:37.652Z,11844.00
2018-04-18T07:26:54.223Z,12096.00
2018-04-18T07:30:06.258Z,12328.00
2018-04-18T07:31:06.159Z,12432.00
2018-04-18T07:32:07.025Z,12496.00
2018-04-18T07:33:06.216Z,12616.00
2018-04-18T07:34:06.161Z,12692.00
2018-04-18T07:35:06.215Z,12856.00
2018-04-18T07:36:06.176Z,13044.00
2018-04-18T07:37:06.211Z,13180.00
2018-04-18T07:38:06.225Z,13384.00
2018-04-18T07:39:06.222Z,13616.00
2018-04-18T07:40:06.289Z,13756.00
2018-04-18T07:41:06.283Z,13972.00
2018-04-18T07:42:07.692Z,13976.00
2018-04-18T07:43:06.328Z,14148.00
2018-04-18T07:44:06.357Z,14372.00
2018-04-18T07:45:07.049Z,14556.00
2018-04-18T07:46:06.341Z,14768.00
2018-04-18T07:47:06.412Z,14896.00
2018-04-18T07:48:06.384Z,15048.00
2018-04-18T07:49:06.368Z,15288.00
2018-04-18T07:50:06.383Z,15584.00
2018-04-18T07:51:06.476Z,15620.00
2018-04-18T07:52:06.425Z,15780.00
2018-04-18T07:53:06.417Z,15840.00
2018-04-18T07:54:06.470Z,15944.00
2018-04-18T07:55:06.468Z,16320.00
2018-04-18T07:56:06.461Z,16576.00
2018-04-18T07:57:06.532Z,17120.00
2018-04-18T07:58:07.543Z,17472.00
2018-04-18T07:59:06.583Z,17696.00
2018-04-18T08:00:06.537Z,17920.00
2018-04-18T08:01:06.570Z,18016.00
2018-04-18T08:02:06.551Z,18240.00
2018-04-18T08:03:06.624Z,18816.00
2018-04-18T08:04:07.009Z,19392.00
2018-04-18T08:05:07.559Z,20192.00
2018-04-18T08:06:06.675Z,20864.00
2018-04-18T08:07:06.651Z,21472.00
2018-04-18T08:08:07.554Z,22336.00
2018-04-18T08:09:07.320Z,23200.00
2018-04-18T08:10:06.994Z,24352.00
2018-04-18T08:11:06.787Z,26048.00
2018-04-18T08:12:07.555Z,26976.00
2018-04-18T08:13:06.780Z,28704.00
2018-04-18T08:14:06.815Z,31136.00
2018-04-18T08:15:06.794Z,34208.00
2018-04-18T08:16:06.827Z,38016.00
2018-04-18T08:17:06.822Z,44672.00
2018-04-18T08:18:06.820Z,50656.00
2018-04-18T08:19:06.869Z,61504.00
2018-04-18T08:20:07.573Z,74400.00
2018-04-18T08:21:06.898Z,89312.00
2018-04-18T08:22:06.948Z,101280.00
2018-04-18T08:23:06.926Z,108448.00
2018-04-18T08:24:06.980Z,117376.00
2018-04-18T08:25:07.078Z,125952.00
2018-04-18T08:26:07.011Z,130400.00
2018-04-18T08:27:07.000Z,127456.00
2018-04-18T08:28:07.008Z,120736.00
2018-04-18T08:29:07.002Z,103456.00
2018-04-18T08:30:07.081Z,92320.00
2018-04-18T08:31:07.045Z,88768.00
2018-04-18T08:32:07.087Z,80256.00
2018-04-18T08:33:07.082Z,75456.00
2018-04-18T08:34:07.117Z,72096.00
2018-04-18T08:35:07.128Z,66400.00
2018-04-18T08:36:07.179Z,62272.00
2018-04-18T08:37:07.167Z,60992.00
2018-04-18T08:38:07.186Z,59776.00
2018-04-18T08:39:08.073Z,58944.00
2018-04-18T08:40:07.701Z,53632.00
2018-04-18T08:41:07.343Z,53760.00
2018-04-18T08:42:07.269Z,54272.00
2018-04-18T08:43:07.291Z,51840.00
2018-04-18T08:44:07.359Z,54528.00
2018-04-18T08:45:07.327Z,55648.00
2018-04-18T08:46:07.321Z,48608.00
2018-04-18T08:47:08.122Z,46400.00
2018-04-18T08:48:07.403Z,49792.00
2018-04-18T08:49:07.569Z,50944.00
2018-04-18T08:50:07.408Z,46304.00
2018-04-18T08:51:07.444Z,50432.00
2018-04-18T08:52:07.477Z,50240.00
2018-04-18T08:53:08.085Z,44864.00
2018-04-18T08:54:07.459Z,47968.00
2018-04-18T08:55:07.502Z,47712.00
2018-04-18T08:56:08.386Z,47264.00
2018-04-18T08:57:07.567Z,44576.00
2018-04-18T08:58:08.527Z,43872.00
2018-04-18T08:59:07.628Z,46688.00
2018-04-18T09:00:07.651Z,49088.00
2018-04-18T09:01:07.690Z,50784.00
2018-04-18T09:02:07.847Z,49312.00
2018-04-18T09:03:07.677Z,49792.00
2018-04-18T09:04:08.133Z,48640.00
2018-04-18T09:05:07.815Z,48960.00
2018-04-18T09:06:07.730Z,49472.00
2018-04-18T09:07:07.958Z,50304.00
2018-04-18T09:08:07.738Z,50080.00
2018-04-18T09:09:08.592Z,52160.00
2018-04-18T09:10:07.780Z,52768.00
2018-04-18T09:11:07.814Z,51104.00
2018-04-18T09:12:07.947Z,52992.00
2018-04-18T09:13:07.859Z,58208.00
2018-04-18T09:14:07.874Z,57472.00
2018-04-18T09:15:08.603Z,55872.00
2018-04-18T09:16:07.957Z,56704.00
2018-04-18T09:17:07.986Z,60128.00
2018-04-18T09:18:07.937Z,66112.00
2018-04-18T09:19:08.035Z,70144.00
2018-04-18T09:20:08.014Z,70272.00
2018-04-18T09:21:08.012Z,72576.00
2018-04-18T09:22:08.182Z,77152.00
2018-04-18T09:23:08.032Z,76352.00
2018-04-18T09:24:08.968Z,75456.00
2018-04-18T09:25:08.183Z,73248.00
2018-04-18T09:26:08.134Z,66016.00
2018-04-18T09:27:08.147Z,58048.00
2018-04-18T09:28:08.150Z,54848.00
2018-04-18T09:29:08.188Z,53152.00
2018-04-18T09:30:08.182Z,52960.00
2018-04-18T09:31:08.282Z,52256.00
2018-04-18T09:32:09.124Z,52352.00
2018-04-18T09:33:08.253Z,52512.00
2018-04-18T09:34:08.364Z,52160.00
2018-04-18T09:35:08.287Z,51808.00
2018-04-18T09:36:08.402Z,48768.00
2018-04-18T09:37:08.365Z,48704.00
2018-04-18T09:38:08.366Z,49600.00
2018-04-18T09:39:08.435Z,49536.00
2018-04-18T09:40:08.401Z,49248.00
2018-04-18T09:41:08.453Z,50432.00
2018-04-18T09:42:08.526Z,50496.00
2018-04-18T09:43:08.462Z,49920.00
2018-04-18T09:44:08.521Z,48960.00
2018-04-18T09:45:08.508Z,48896.00
2018-04-18T09:46:08.546Z,48352.00
2018-04-18T09:47:08.630Z,47360.00
2018-04-18T09:48:08.610Z,46080.00
2018-04-18T09:49:08.637Z,44736.00
2018-04-18T09:50:08.653Z,44992.00
2018-04-18T09:51:08.716Z,45088.00
2018-04-18T09:52:08.668Z,45472.00
2018-04-18T09:53:08.698Z,44896.00
2018-04-18T09:54:08.712Z,48160.00
2018-04-18T09:55:08.740Z,60384.00
2018-04-18T09:56:08.758Z,79296.00
2018-04-18T09:57:09.038Z,85632.00
2018-04-18T09:58:08.807Z,85600.00
2018-04-18T09:59:08.881Z,85920.00
2018-04-18T10:00:08.853Z,75680.00
2018-04-18T10:01:08.887Z,69568.00
2018-04-18T10:02:08.891Z,68576.00
2018-04-18T10:03:09.007Z,74144.00
2018-04-18T10:04:09.629Z,80864.00
2018-04-18T10:05:08.963Z,82336.00
2018-04-18T10:10:48.531Z,74112.00
2018-04-18T10:11:46.533Z,70112.00
2018-04-18T10:12:46.533Z,74400.00
2018-04-18T10:13:46.538Z,76960.00
2018-04-18T10:14:45.640Z,79424.00
2018-04-18T10:15:45.663Z,80640.00
2018-04-18T10:16:45.705Z,78528.00
2018-04-18T10:17:45.700Z,78624.00
2018-04-18T10:18:45.715Z,79264.00
2018-04-18T10:19:45.752Z,76320.00
2018-04-18T10:20:45.779Z,74080.00
2018-04-18T10:21:45.855Z,74464.00
2018-04-18T10:22:45.837Z,73920.00
2018-04-18T10:23:45.851Z,77312.00
2018-04-18T10:24:45.871Z,79104.00
2018-04-18T10:25:45.880Z,79072.00
2018-04-18T10:26:45.953Z,69920.00
2018-04-18T10:27:45.935Z,70432.00
2018-04-18T10:28:46.540Z,79168.00
2018-04-18T10:31:01.547Z,81280.00
2018-04-18T10:31:46.019Z,78624.00
2018-04-18T10:32:46.043Z,77088.00
2018-04-18T10:33:46.059Z,76576.00
2018-04-18T10:34:46.098Z,78016.00
2018-04-18T10:35:46.133Z,78912.00
2018-04-18T10:36:46.131Z,80928.00
2018-04-18T10:37:46.181Z,82752.00
2018-04-18T10:38:46.201Z,83264.00
2018-04-18T10:39:46.229Z,79520.00
2018-04-18T10:40:46.234Z,74560.00
2018-04-18T10:41:46.278Z,76736.00
2018-04-18T10:42:46.277Z,82240.00
2018-04-18T10:43:46.291Z,75872.00
2018-04-18T10:44:46.313Z,68928.00
2018-04-18T10:45:46.514Z,66304.00
2018-04-18T10:46:46.357Z,69056.00
2018-04-18T10:47:46.383Z,75584.00
2018-04-18T10:48:46.417Z,70016.00
2018-04-18T10:49:46.434Z,64640.00
2018-04-18T10:50:46.470Z,68064.00
2018-04-18T10:51:46.512Z,69504.00
2018-04-18T10:52:46.523Z,72448.00
2018-04-18T10:53:46.527Z,76544.00
2018-04-18T10:54:46.555Z,78016.00
2018-04-18T10:55:46.570Z,72704.00
2018-04-18T10:56:46.601Z,71456.00
2018-04-18T10:57:46.631Z,77216.00
2018-04-18T10:58:46.659Z,80384.00
2018-04-18T10:59:46.681Z,81344.00
2018-04-18T11:00:46.691Z,79520.00
2018-04-18T11:01:46.693Z,81216.00
2018-04-18T11:02:46.758Z,78304.00
2018-04-18T11:05:18.934Z,34720.00
2018-04-18T11:06:18.919Z,11288.00
2018-04-18T11:07:18.939Z,7976.00
2018-04-18T11:08:19.008Z,7320.00
2018-04-18T11:09:18.981Z,7168.00
2018-04-18T11:10:18.982Z,7076.00
2018-04-18T11:11:19.040Z,7004.00
2018-04-18T11:12:19.033Z,6980.00
2018-04-18T11:13:19.123Z,6956.00
2018-04-18T11:14:19.096Z,6884.00
2018-04-18T11:15:19.116Z,6884.00
2018-04-18T11:16:19.137Z,6848.00
2018-04-18T11:17:19.110Z,6792.00
2018-04-18T11:18:19.207Z,6780.00
2018-04-18T11:19:19.168Z,6832.00
2018-04-18T11:20:19.210Z,6812.00
2018-04-18T11:21:19.268Z,6820.00
2018-04-18T11:22:19.223Z,6796.00
2018-04-18T11:23:19.246Z,6736.00
2018-04-18T11:24:19.272Z,6748.00
2018-04-18T11:25:19.276Z,6768.00
2018-04-18T11:26:19.257Z,6800.00
2018-04-18T11:27:19.288Z,6824.00
2018-04-18T11:28:19.318Z,6816.00
2018-04-18T11:29:19.425Z,6756.00
2018-04-18T11:30:19.331Z,6680.00
2018-04-18T11:31:19.324Z,6556.00
2018-04-18T11:32:19.338Z,6360.00
2018-04-18T11:33:19.357Z,6204.00
2018-04-18T11:34:19.384Z,6064.00
2018-04-18T11:35:19.372Z,5896.00
2018-04-18T11:36:19.407Z,5792.00
2018-04-18T11:37:19.426Z,5696.00
2018-04-18T11:38:19.469Z,5652.00
2018-04-18T11:39:19.427Z,5644.00
2018-04-18T11:40:19.620Z,5564.00
2018-04-18T11:41:19.580Z,5556.00
2018-04-18T11:42:20.376Z,5528.00
2018-04-18T11:43:19.622Z,5516.00
2018-04-18T11:44:19.500Z,5532.00
2018-04-18T11:45:19.764Z,5572.00
2018-04-18T11:46:19.618Z,5652.00
2018-04-18T11:47:49.878Z,5656.00
2018-04-18T11:48:21.394Z,5700.00
2018-04-18T11:49:20.366Z,5712.00
2018-04-18T11:50:19.612Z,5760.00
2018-04-18T11:51:19.665Z,5888.00
2018-04-18T11:52:19.683Z,6044.00
2018-04-18T11:53:19.792Z,6152.00
2018-04-18T11:54:19.624Z,6248.00
2018-04-18T11:55:19.664Z,6280.00
2018-04-18T11:56:20.506Z,6276.00
2018-04-18T11:57:19.663Z,6136.00
2018-04-18T11:58:19.670Z,6060.00
2018-04-18T11:59:19.690Z,5908.00
2018-04-18T12:00:19.681Z,5844.00
2018-04-18T12:01:19.701Z,5772.00
2018-04-18T12:02:19.743Z,5716.00
2018-04-18T12:03:19.739Z,5680.00
2018-04-18T12:04:19.745Z,5680.00
2018-04-18T12:05:19.717Z,5724.00
2018-04-18T12:06:20.397Z,5648.00
2018-04-18T12:07:20.376Z,5716.00
2018-04-18T12:08:19.798Z,5716.00
2018-04-18T12:09:19.779Z,5704.00
2018-04-18T12:10:19.847Z,5732.00
2018-04-18T12:11:19.803Z,5760.00
2018-04-18T12:12:21.521Z,5768.00
2018-04-18T12:13:19.944Z,5760.00
2018-04-18T12:14:19.871Z,5736.00
2018-04-18T12:15:20.047Z,5696.00
2018-04-18T12:16:19.908Z,5612.00
2018-04-18T12:17:19.917Z,5532.00
2018-04-18T12:18:19.902Z,5480.00
2018-04-18T12:19:19.911Z,5384.00
2018-04-18T12:20:19.943Z,5340.00
2018-04-18T12:21:20.885Z,5388.00
2018-04-18T12:22:20.024Z,5332.00
2018-04-18T12:23:19.907Z,5332.00
2018-04-18T12:24:20.897Z,5336.00
2018-04-18T12:25:21.383Z,5288.00
2018-04-18T12:26:20.010Z,5260.00
2018-04-18T12:27:20.048Z,5296.00
2018-04-18T12:28:20.038Z,5228.00
2018-04-18T12:29:20.000Z,5180.00
2018-04-18T12:30:20.085Z,5220.00
2018-04-18T12:31:20.946Z,5188.00
2018-04-18T12:32:20.891Z,5168.00
2018-04-18T12:33:20.007Z,5056.00
2018-04-18T12:34:20.232Z,5076.00
2018-04-18T12:35:20.895Z,5108.00
2018-04-18T12:36:20.119Z,5268.00
2018-04-18T12:37:21.066Z,5336.00
2018-04-18T12:38:20.158Z,5344.00
2018-04-18T12:39:20.149Z,5320.00
2018-04-18T12:40:20.095Z,5316.00
2018-04-18T12:41:20.090Z,5224.00
2018-04-18T12:42:20.099Z,5272.00
2018-04-18T12:43:20.135Z,5320.00